Terminal Aerodrome Forecast
Issued by NWS

Home | Current Version | Previous Version | Text Only | Print | Product List | Glossary On
Versions: 1 2 3 4 5 6 7 8 9 10 11 12 13 14 15 16 17 18 19 20 21 22 23 24 25 26 27 28 29
000
FTUS43 KDMX 110520
TAFFOD
TAF
KFOD 110520Z 1106/1206 17011KT P6SM FEW050 SCT150
     FM111200 17012G18KT P6SM VCTS SCT035CB BKN060
     FM112300 14007KT P6SM SCT030 BKN050=

USA.gov is the U.S. government's official web portal to all federal, state and local government web resources and services.